sensor_id;sensor_type;location;lat;lon;timestamp;pressure;altitude;pressure_sealevel;temperature;humidity
78168;BME280;67410;42.698;23.378;2024-03-07T00:01:04;95423.19;;;6.81;100.00
78168;BME280;67410;42.698;23.378;2024-03-07T00:03:30;95426.44;;;6.83;100.00
78168;BME280;67410;42.698;23.378;2024-03-07T00:05:56;95421.56;;;6.80;100.00
78168;BME280;67410;42.698;23.378;2024-03-07T00:08:22;95419.53;;;6.75;100.00
78168;BME280;67410;42.698;23.378;2024-03-07T00:10:48;95419.88;;;6.66;100.00
78168;BME280;67410;42.698;23.378;2024-03-07T00:13:15;95412.31;;;6.77;100.00
78168;BME280;67410;42.698;23.378;2024-03-07T00:15:41;95413.53;;;6.82;100.00
78168;BME280;67410;42.698;23.378;2024-03-07T00:18:07;95418.72;;;6.75;100.00
78168;BME280;67410;42.698;23.378;2024-03-07T00:20:33;95416.16;;;6.82;100.00
78168;BME280;67410;42.698;23.378;2024-03-07T00:23:01;95412.09;;;6.79;100.00
78168;BME280;67410;42.698;23.378;2024-03-07T00:25:28;95399.38;;;6.69;100.00
78168;BME280;67410;42.698;23.378;2024-03-07T00:27:57;95400.38;;;6.68;100.00
78168;BME280;67410;42.698;23.378;2024-03-07T00:30:28;95393.72;;;6.66;100.00
78168;BME280;67410;42.698;23.378;2024-03-07T00:32:56;95399.56;;;6.68;100.00
78168;BME280;67410;42.698;23.378;2024-03-07T00:35:22;95400.94;;;6.64;100.00
78168;BME280;67410;42.698;23.378;2024-03-07T00:37:48;95396.72;;;6.63;100.00
78168;BME280;67410;42.698;23.378;2024-03-07T00:40:14;95391.84;;;6.53;100.00
78168;BME280;67410;42.698;23.378;2024-03-07T00:42:41;95392.84;;;6.52;100.00
78168;BME280;67410;42.698;23.378;2024-03-07T00:45:07;95398.41;;;6.42;100.00
78168;BME280;67410;42.698;23.378;2024-03-07T00:47:35;95387.72;;;6.37;100.00
78168;BME280;67410;42.698;23.378;2024-03-07T00:50:01;95398.41;;;6.42;100.00
78168;BME280;67410;42.698;23.378;2024-03-07T00:52:27;95395.00;;;6.42;100.00
78168;BME280;67410;42.698;23.378;2024-03-07T00:54:53;95390.09;;;6.32;100.00
78168;BME280;67410;42.698;23.378;2024-03-07T00:57:19;95383.88;;;6.33;100.00
78168;BME280;67410;42.698;23.378;2024-03-07T00:59:45;95387.28;;;6.34;100.00
78168;BME280;67410;42.698;23.378;2024-03-07T01:02:12;95383.69;;;6.35;100.00
78168;BME280;67410;42.698;23.378;2024-03-07T01:04:39;95385.06;;;6.31;100.00
78168;BME280;67410;42.698;23.378;2024-03-07T01:07:05;95375.41;;;6.31;100.00
78168;BME280;67410;42.698;23.378;2024-03-07T01:09:31;95374.41;;;6.32;100.00
78168;BME280;67410;42.698;23.378;2024-03-07T01:11:57;95372.00;;;6.31;100.00
78168;BME280;67410;42.698;23.378;2024-03-07T01:14:25;95373.41;;;6.27;100.00
78168;BME280;67410;42.698;23.378;2024-03-07T01:16:51;95376.22;;;6.25;100.00
78168;BME280;67410;42.698;23.378;2024-03-07T01:19:17;95369.56;;;6.29;100.00
78168;BME280;67410;42.698;23.378;2024-03-07T01:21:43;95377.63;;;6.28;100.00
78168;BME280;67410;42.698;23.378;2024-03-07T01:24:09;95370.59;;;6.28;100.00
78168;BME280;67410;42.698;23.378;2024-03-07T01:26:36;95366.56;;;6.26;100.00
78168;BME280;67410;42.698;23.378;2024-03-07T01:29:02;95361.09;;;6.21;100.00
78168;BME280;67410;42.698;23.378;2024-03-07T01:31:28;95359.84;;;6.17;100.00
78168;BME280;67410;42.698;23.378;2024-03-07T01:33:54;95365.88;;;6.17;100.00
78168;BME280;67410;42.698;23.378;2024-03-07T01:36:22;95356.63;;;6.15;100.00
78168;BME280;67410;42.698;23.378;2024-03-07T01:38:48;95359.25;;;6.15;100.00
78168;BME280;67410;42.698;23.378;2024-03-07T01:41:14;95354.97;;;6.07;100.00
78168;BME280;67410;42.698;23.378;2024-03-07T01:43:41;95362.00;;;6.06;100.00
78168;BME280;67410;42.698;23.378;2024-03-07T01:46:08;95354.16;;;6.06;100.00
78168;BME280;67410;42.698;23.378;2024-03-07T01:48:37;95352.72;;;6.04;100.00
78168;BME280;67410;42.698;23.378;2024-03-07T01:51:04;95352.53;;;6.05;100.00
78168;BME280;67410;42.698;23.378;2024-03-07T01:53:30;95339.84;;;6.02;100.00
78168;BME280;67410;42.698;23.378;2024-03-07T01:55:57;95344.84;;;5.97;100.00
78168;BME280;67410;42.698;23.378;2024-03-07T01:58:25;95346.47;;;5.98;100.00
78168;BME280;67410;42.698;23.378;2024-03-07T02:00:51;95344.47;;;6.00;100.00
78168;BME280;67410;42.698;23.378;2024-03-07T02:03:18;95345.06;;;5.96;100.00
78168;BME280;67410;42.698;23.378;2024-03-07T02:05:44;95348.41;;;5.90;100.00
78168;BME280;67410;42.698;23.378;2024-03-07T02:08:11;95361.63;;;5.88;100.00
78168;BME280;67410;42.698;23.378;2024-03-07T02:10:37;95361.47;;;5.90;100.00
78168;BME280;67410;42.698;23.378;2024-03-07T02:13:04;95365.53;;;5.92;100.00
78168;BME280;67410;42.698;23.378;2024-03-07T02:15:30;95364.72;;;5.92;100.00
78168;BME280;67410;42.698;23.378;2024-03-07T02:17:56;95356.69;;;5.93;100.00
78168;BME280;67410;42.698;23.378;2024-03-07T02:20:24;95363.91;;;5.91;100.00
78168;BME280;67410;42.698;23.378;2024-03-07T02:22:50;95368.84;;;5.86;100.00
78168;BME280;67410;42.698;23.378;2024-03-07T02:25:17;95361.78;;;5.80;100.00
78168;BME280;67410;42.698;23.378;2024-03-07T02:27:43;95357.16;;;5.82;100.00
78168;BME280;67410;42.698;23.378;2024-03-07T02:30:11;95351.38;;;5.87;100.00
78168;BME280;67410;42.698;23.378;2024-03-07T02:32:38;95354.38;;;5.84;100.00
78168;BME280;67410;42.698;23.378;2024-03-07T02:35:05;95348.91;;;5.78;100.00
78168;BME280;67410;42.698;23.378;2024-03-07T02:37:31;95342.66;;;5.73;100.00
78168;BME280;67410;42.698;23.378;2024-03-07T02:39:58;95343.66;;;5.72;100.00
78168;BME280;67410;42.698;23.378;2024-03-07T02:42:24;95347.25;;;5.71;100.00
78168;BME280;67410;42.698;23.378;2024-03-07T02:44:50;95357.88;;;5.69;100.00
78168;BME280;67410;42.698;23.378;2024-03-07T02:47:18;95363.31;;;5.68;100.00
78168;BME280;67410;42.698;23.378;2024-03-07T02:49:44;95368.47;;;5.61;100.00
78168;BME280;67410;42.698;23.378;2024-03-07T02:52:10;95359.81;;;5.61;100.00
78168;BME280;67410;42.698;23.378;2024-03-07T02:54:37;95365.78;;;5.55;99.87
78168;BME280;67410;42.698;23.378;2024-03-07T02:57:03;95362.19;;;5.56;98.10
78168;BME280;67410;42.698;23.378;2024-03-07T02:59:29;95366.72;;;5.47;99.15
78168;BME280;67410;42.698;23.378;2024-03-07T03:01:55;95369.09;;;5.42;99.05
78168;BME280;67410;42.698;23.378;2024-03-07T03:04:21;95369.09;;;5.42;99.88
78168;BME280;67410;42.698;23.378;2024-03-07T03:06:48;95380.56;;;5.48;98.39
78168;BME280;67410;42.698;23.378;2024-03-07T03:09:14;95374.50;;;5.40;98.79
78168;BME280;67410;42.698;23.378;2024-03-07T03:11:46;95384.41;;;5.45;98.18
78168;BME280;67410;42.698;23.378;2024-03-07T03:14:12;95385.88;;;5.54;98.11
78168;BME280;67410;42.698;23.378;2024-03-07T03:16:42;95375.13;;;5.42;98.08
78168;BME280;67410;42.698;23.378;2024-03-07T03:19:11;95367.66;;;5.39;97.41
78168;BME280;67410;42.698;23.378;2024-03-07T03:21:37;95375.44;;;5.33;98.73
78168;BME280;67410;42.698;23.378;2024-03-07T03:24:04;95379.03;;;5.32;99.05
78168;BME280;67410;42.698;23.378;2024-03-07T03:26:30;95380.75;;;5.25;99.05
78168;BME280;67410;42.698;23.378;2024-03-07T03:29:00;95387.13;;;5.16;98.38
78168;BME280;67410;42.698;23.378;2024-03-07T03:31:27;95387.56;;;5.19;98.58
78168;BME280;67410;42.698;23.378;2024-03-07T03:33:53;95384.06;;;5.12;98.77
78168;BME280;67410;42.698;23.378;2024-03-07T03:36:19;95389.09;;;5.14;99.11
78168;BME280;67410;42.698;23.378;2024-03-07T03:38:45;95390.53;;;5.16;99.05
78168;BME280;67410;42.698;23.378;2024-03-07T03:41:15;95390.91;;;5.13;99.76
78168;BME280;67410;42.698;23.378;2024-03-07T03:43:43;95407.38;;;5.14;99.75
78168;BME280;67410;42.698;23.378;2024-03-07T03:46:12;95409.16;;;5.13;99.58
78168;BME280;67410;42.698;23.378;2024-03-07T03:48:41;95398.47;;;5.08;99.04
78168;BME280;67410;42.698;23.378;2024-03-07T03:51:08;95396.03;;;5.06;99.51
78168;BME280;67410;42.698;23.378;2024-03-07T03:53:36;95386.59;;;5.05;99.71
78168;BME280;67410;42.698;23.378;2024-03-07T03:56:03;95388.31;;;4.98;100.00
78168;BME280;67410;42.698;23.378;2024-03-07T03:58:33;95375.31;;;4.84;99.88
78168;BME280;67410;42.698;23.378;2024-03-07T04:01:00;95375.22;;;4.77;100.00
78168;BME280;67410;42.698;23.378;2024-03-07T04:03:26;95372.63;;;4.77;100.00
78168;BME280;67410;42.698;23.378;2024-03-07T04:05:52;95364.84;;;4.62;100.00
78168;BME280;67410;42.698;23.378;2024-03-07T04:08:18;95372.84;;;4.61;100.00
78168;BME280;67410;42.698;23.378;2024-03-07T04:10:46;95379.59;;;4.55;100.00
78168;BME280;67410;42.698;23.378;2024-03-07T04:13:12;95377.59;;;4.42;100.00
78168;BME280;67410;42.698;23.378;2024-03-07T04:15:39;95371.34;;;4.37;100.00
78168;BME280;67410;42.698;23.378;2024-03-07T04:18:06;95371.53;;;4.35;100.00
78168;BME280;67410;42.698;23.378;2024-03-07T04:20:33;95380.97;;;4.36;100.00
78168;BME280;67410;42.698;23.378;2024-03-07T04:22:59;95378.97;;;4.24;100.00
78168;BME280;67410;42.698;23.378;2024-03-07T04:25:25;95393.72;;;4.31;100.00
78168;BME280;67410;42.698;23.378;2024-03-07T04:27:51;95395.06;;;4.27;100.00
78168;BME280;67410;42.698;23.378;2024-03-07T04:30:17;95391.38;;;4.22;100.00
78168;BME280;67410;42.698;23.378;2024-03-07T04:32:43;95388.75;;;4.22;100.00
78168;BME280;67410;42.698;23.378;2024-03-07T04:35:09;95384.63;;;4.27;100.00
78168;BME280;67410;42.698;23.378;2024-03-07T04:37:36;95391.53;;;4.20;100.00
78168;BME280;67410;42.698;23.378;2024-03-07T04:40:07;95381.19;;;4.12;100.00
78168;BME280;67410;42.698;23.378;2024-03-07T04:42:44;95385.34;;;4.06;100.00
78168;BME280;67410;42.698;23.378;2024-03-07T04:45:11;95384.53;;;4.06;100.00
78168;BME280;67410;42.698;23.378;2024-03-07T04:47:43;95382.91;;;4.05;100.00
78168;BME280;67410;42.698;23.378;2024-03-07T04:50:10;95378.94;;;3.94;100.00
78168;BME280;67410;42.698;23.378;2024-03-07T04:52:40;95389.66;;;3.99;100.00
78168;BME280;67410;42.698;23.378;2024-03-07T04:55:06;95396.47;;;4.00;100.00
78168;BME280;67410;42.698;23.378;2024-03-07T04:57:37;95395.28;;;3.88;100.00
78168;BME280;67410;42.698;23.378;2024-03-07T05:00:12;95399.66;;;3.88;100.00
78168;BME280;67410;42.698;23.378;2024-03-07T05:02:46;95404.19;;;3.94;100.00
78168;BME280;67410;42.698;23.378;2024-03-07T05:05:12;95402.22;;;3.96;99.92
78168;BME280;67410;42.698;23.378;2024-03-07T05:07:39;95407.41;;;3.96;99.76
78168;BME280;67410;42.698;23.378;2024-03-07T05:10:07;95414.06;;;3.98;99.09
78168;BME280;67410;42.698;23.378;2024-03-07T05:12:35;95413.72;;;4.01;99.30
78168;BME280;67410;42.698;23.378;2024-03-07T05:15:03;95417.78;;;4.04;97.95
78168;BME280;67410;42.698;23.378;2024-03-07T05:17:30;95414.88;;;3.99;99.58
78168;BME280;67410;42.698;23.378;2024-03-07T05:20:00;95419.75;;;4.02;99.01
78168;BME280;67410;42.698;23.378;2024-03-07T05:22:26;95409.69;;;3.99;98.69
78168;BME280;67410;42.698;23.378;2024-03-07T05:24:52;95413.56;;;4.03;98.37
78168;BME280;67410;42.698;23.378;2024-03-07T05:27:18;95406.91;;;4.00;98.53
78168;BME280;67410;42.698;23.378;2024-03-07T05:29:44;95411.94;;;4.02;98.87
78168;BME280;67410;42.698;23.378;2024-03-07T05:32:23;95423.88;;;4.11;99.07
78168;BME280;67410;42.698;23.378;2024-03-07T05:34:50;95414.38;;;4.18;98.70
78168;BME280;67410;42.698;23.378;2024-03-07T05:37:16;95414.72;;;4.15;99.00
78168;BME280;67410;42.698;23.378;2024-03-07T05:39:43;95422.19;;;4.18;98.20
78168;BME280;67410;42.698;23.378;2024-03-07T05:42:11;95428.66;;;4.22;98.34
78168;BME280;67410;42.698;23.378;2024-03-07T05:44:41;95413.59;;;4.32;97.57
78168;BME280;67410;42.698;23.378;2024-03-07T05:47:07;95420.31;;;4.41;96.98
78168;BME280;67410;42.698;23.378;2024-03-07T05:49:35;95424.44;;;4.51;97.48
78168;BME280;67410;42.698;23.378;2024-03-07T05:52:03;95416.81;;;4.49;97.11
78168;BME280;67410;42.698;23.378;2024-03-07T05:54:30;95422.94;;;4.56;96.76
78168;BME280;67410;42.698;23.378;2024-03-07T05:56:56;95420.41;;;4.63;96.23
78168;BME280;67410;42.698;23.378;2024-03-07T05:59:22;95421.56;;;4.75;97.47
78168;BME280;67410;42.698;23.378;2024-03-07T06:01:48;95425.97;;;4.74;96.02
78168;BME280;67410;42.698;23.378;2024-03-07T06:04:14;95435.50;;;4.67;95.53
78168;BME280;67410;42.698;23.378;2024-03-07T06:06:41;95436.41;;;4.60;95.09
78168;BME280;67410;42.698;23.378;2024-03-07T06:09:09;95431.03;;;4.61;94.81
78168;BME280;67410;42.698;23.378;2024-03-07T06:11:39;95431.66;;;4.63;95.85
78168;BME280;67410;42.698;23.378;2024-03-07T06:14:09;95436.88;;;4.63;95.32
78168;BME280;67410;42.698;23.378;2024-03-07T06:16:40;95440.53;;;4.69;94.53
78168;BME280;67410;42.698;23.378;2024-03-07T06:19:07;95439.28;;;4.65;94.63
78168;BME280;67410;42.698;23.378;2024-03-07T06:21:37;95438.28;;;4.81;92.84
78168;BME280;67410;42.698;23.378;2024-03-07T06:24:03;95443.84;;;4.78;92.42
78168;BME280;67410;42.698;23.378;2024-03-07T06:26:31;95441.69;;;4.81;93.71
78168;BME280;67410;42.698;23.378;2024-03-07T06:29:15;95465.91;;;4.90;92.51
78168;BME280;67410;42.698;23.378;2024-03-07T06:31:42;95471.75;;;4.92;92.58
78168;BME280;67410;42.698;23.378;2024-03-07T06:34:09;95464.25;;;5.03;92.60
78168;BME280;67410;42.698;23.378;2024-03-07T06:36:36;95465.16;;;5.10;91.65
78168;BME280;67410;42.698;23.378;2024-03-07T06:39:02;95465.16;;;4.96;91.81
78168;BME280;67410;42.698;23.378;2024-03-07T06:41:34;95459.06;;;4.89;91.49
78168;BME280;67410;42.698;23.378;2024-03-07T06:44:01;95451.41;;;4.87;92.67
78168;BME280;67410;42.698;23.378;2024-03-07T06:46:27;95450.25;;;4.90;93.64
78168;BME280;67410;42.698;23.378;2024-03-07T06:48:54;95451.88;;;4.91;93.84
78168;BME280;67410;42.698;23.378;2024-03-07T06:51:22;95450.13;;;4.98;93.43
78168;BME280;67410;42.698;23.378;2024-03-07T06:53:48;95460.56;;;4.98;93.29
78168;BME280;67410;42.698;23.378;2024-03-07T06:56:16;95461.09;;;5.08;94.12
78168;BME280;67410;42.698;23.378;2024-03-07T06:58:43;95469.28;;;5.20;93.49
78168;BME280;67410;42.698;23.378;2024-03-07T07:01:12;95461.72;;;5.10;92.92
78168;BME280;67410;42.698;23.378;2024-03-07T07:03:41;95459.31;;;5.08;94.05
78168;BME280;67410;42.698;23.378;2024-03-07T07:06:10;95467.56;;;5.12;93.29
78168;BME280;67410;42.698;23.378;2024-03-07T07:08:36;95466.31;;;5.08;93.07
78168;BME280;67410;42.698;23.378;2024-03-07T07:11:03;95465.97;;;5.11;92.56
78168;BME280;67410;42.698;23.378;2024-03-07T07:13:32;95454.16;;;5.15;93.16
78168;BME280;67410;42.698;23.378;2024-03-07T07:15:58;95456.72;;;5.30;92.94
78168;BME280;67410;42.698;23.378;2024-03-07T07:18:25;95452.28;;;5.45;91.21
78168;BME280;67410;42.698;23.378;2024-03-07T07:20:51;95443.75;;;5.58;91.95
78168;BME280;67410;42.698;23.378;2024-03-07T07:23:20;95439.41;;;5.86;91.93
78168;BME280;67410;42.698;23.378;2024-03-07T07:25:46;95427.25;;;5.93;90.21
78168;BME280;67410;42.698;23.378;2024-03-07T07:28:12;95427.31;;;6.00;88.00
78168;BME280;67410;42.698;23.378;2024-03-07T07:30:39;95444.81;;;6.27;88.21
78168;BME280;67410;42.698;23.378;2024-03-07T07:33:05;95442.84;;;6.36;88.60
78168;BME280;67410;42.698;23.378;2024-03-07T07:35:31;95445.00;;;6.26;87.88
78168;BME280;67410;42.698;23.378;2024-03-07T07:37:58;95446.53;;;6.48;88.19
78168;BME280;67410;42.698;23.378;2024-03-07T07:40:25;95447.22;;;6.63;87.30
78168;BME280;67410;42.698;23.378;2024-03-07T07:42:53;95446.78;;;6.53;86.42
78168;BME280;67410;42.698;23.378;2024-03-07T07:45:20;95443.75;;;6.50;85.35
78168;BME280;67410;42.698;23.378;2024-03-07T07:47:51;95441.22;;;6.69;86.62
78168;BME280;67410;42.698;23.378;2024-03-07T07:50:19;95442.72;;;6.85;85.89
78168;BME280;67410;42.698;23.378;2024-03-07T07:52:51;95437.88;;;6.82;84.84
78168;BME280;67410;42.698;23.378;2024-03-07T07:55:20;95428.16;;;6.69;86.43
78168;BME280;67410;42.698;23.378;2024-03-07T07:57:57;95432.34;;;6.64;84.50
78168;BME280;67410;42.698;23.378;2024-03-07T08:00:25;95433.50;;;6.55;85.33
78168;BME280;67410;42.698;23.378;2024-03-07T08:03:02;95427.00;;;6.44;85.03
78168;BME280;67410;42.698;23.378;2024-03-07T08:05:30;95435.22;;;6.41;87.01
78168;BME280;67410;42.698;23.378;2024-03-07T08:08:02;95423.44;;;6.58;87.16
78168;BME280;67410;42.698;23.378;2024-03-07T08:10:30;95448.66;;;6.66;85.46
78168;BME280;67410;42.698;23.378;2024-03-07T08:12:58;95435.28;;;6.82;85.45
78168;BME280;67410;42.698;23.378;2024-03-07T08:15:29;95444.41;;;6.65;85.52
78168;BME280;67410;42.698;23.378;2024-03-07T08:17:56;95455.19;;;6.49;86.90
78168;BME280;67410;42.698;23.378;2024-03-07T08:20:24;95456.25;;;6.61;85.60
78168;BME280;67410;42.698;23.378;2024-03-07T08:22:55;95464.91;;;6.61;85.18
78168;BME280;67410;42.698;23.378;2024-03-07T08:25:25;95457.66;;;6.57;85.54
78168;BME280;67410;42.698;23.378;2024-03-07T08:27:56;95459.03;;;6.81;84.89
78168;BME280;67410;42.698;23.378;2024-03-07T08:30:22;95478.38;;;6.58;83.66
78168;BME280;67410;42.698;23.378;2024-03-07T08:32:50;95474.50;;;6.48;85.64
78168;BME280;67410;42.698;23.378;2024-03-07T08:35:20;95476.81;;;6.64;86.48
78168;BME280;67410;42.698;23.378;2024-03-07T08:37:48;95487.91;;;6.66;85.40
78168;BME280;67410;42.698;23.378;2024-03-07T08:40:19;95488.72;;;6.66;86.32
78168;BME280;67410;42.698;23.378;2024-03-07T08:42:47;95487.56;;;6.75;85.24
78168;BME280;67410;42.698;23.378;2024-03-07T08:45:14;95485.66;;;6.63;84.38
78168;BME280;67410;42.698;23.378;2024-03-07T08:47:50;95501.75;;;6.60;84.48
78168;BME280;67410;42.698;23.378;2024-03-07T08:50:18;95499.28;;;6.52;84.97
78168;BME280;67410;42.698;23.378;2024-03-07T08:52:48;95505.88;;;6.48;85.24
78168;BME280;67410;42.698;23.378;2024-03-07T08:55:19;95504.66;;;6.43;84.08
78168;BME280;67410;42.698;23.378;2024-03-07T08:57:46;95510.88;;;6.42;84.29
78168;BME280;67410;42.698;23.378;2024-03-07T09:00:14;95510.69;;;6.44;85.59
78168;BME280;67410;42.698;23.378;2024-03-07T09:03:00;95504.03;;;6.41;85.91
78168;BME280;67410;42.698;23.378;2024-03-07T09:05:30;95506.59;;;6.35;85.51
78168;BME280;67410;42.698;23.378;2024-03-07T09:07:59;95492.69;;;6.56;85.05
78168;BME280;67410;42.698;23.378;2024-03-07T09:10:25;95487.84;;;6.59;84.08
78168;BME280;67410;42.698;23.378;2024-03-07T09:12:52;95506.94;;;6.81;83.23
78168;BME280;67410;42.698;23.378;2024-03-07T09:15:20;95500.94;;;6.94;83.13
78168;BME280;67410;42.698;23.378;2024-03-07T09:17:47;95510.31;;;7.16;83.58
78168;BME280;67410;42.698;23.378;2024-03-07T09:20:15;95505.28;;;7.08;82.19
78168;BME280;67410;42.698;23.378;2024-03-07T09:22:42;95498.28;;;7.22;81.82
78168;BME280;67410;42.698;23.378;2024-03-07T09:25:08;95508.34;;;7.25;81.33
78168;BME280;67410;42.698;23.378;2024-03-07T09:27:35;95509.25;;;7.38;80.59
78168;BME280;67410;42.698;23.378;2024-03-07T09:30:01;95515.28;;;7.45;80.78
78168;BME280;67410;42.698;23.378;2024-03-07T09:32:27;95513.13;;;7.56;79.04
78168;BME280;67410;42.698;23.378;2024-03-07T09:34:58;95512.16;;;7.63;80.06
78168;BME280;67410;42.698;23.378;2024-03-07T09:37:26;95510.34;;;7.77;79.13
78168;BME280;67410;42.698;23.378;2024-03-07T09:39:52;95516.03;;;7.87;76.78
78168;BME280;67410;42.698;23.378;2024-03-07T09:42:18;95511.16;;;7.77;76.37
78168;BME280;67410;42.698;23.378;2024-03-07T09:44:45;95508.72;;;7.69;79.98
78168;BME280;67410;42.698;23.378;2024-03-07T09:47:13;95508.50;;;7.71;77.63
78168;BME280;67410;42.698;23.378;2024-03-07T09:49:39;95507.94;;;7.82;78.78
78168;BME280;67410;42.698;23.378;2024-03-07T09:52:08;95505.75;;;7.92;78.96
78168;BME280;67410;42.698;23.378;2024-03-07T09:54:38;95504.75;;;8.06;77.17
78168;BME280;67410;42.698;23.378;2024-03-07T09:57:06;95496.88;;;7.93;76.33
78168;BME280;67410;42.698;23.378;2024-03-07T09:59:35;95502.75;;;8.28;76.83
78168;BME280;67410;42.698;23.378;2024-03-07T10:02:06;95507.03;;;8.56;77.31
78168;BME280;67410;42.698;23.378;2024-03-07T10:04:44;95511.66;;;8.54;75.06
78168;BME280;67410;42.698;23.378;2024-03-07T10:07:15;95502.38;;;8.51;76.64
78168;BME280;67410;42.698;23.378;2024-03-07T10:09:42;95492.53;;;8.46;74.45
78168;BME280;67410;42.698;23.378;2024-03-07T10:12:09;95490.56;;;9.13;76.85
78168;BME280;67410;42.698;23.378;2024-03-07T10:14:38;95491.34;;;9.27;73.50
78168;BME280;67410;42.698;23.378;2024-03-07T10:17:05;95485.09;;;9.28;72.29
78168;BME280;67410;42.698;23.378;2024-03-07T10:19:35;95476.31;;;9.47;73.81
78168;BME280;67410;42.698;23.378;2024-03-07T10:22:03;95480.63;;;10.04;71.69
78168;BME280;67410;42.698;23.378;2024-03-07T10:24:32;95481.53;;;10.48;69.83
78168;BME280;67410;42.698;23.378;2024-03-07T10:27:00;95471.09;;;10.10;70.01
78168;BME280;67410;42.698;23.378;2024-03-07T10:29:26;95467.28;;;9.68;70.96
78168;BME280;67410;42.698;23.378;2024-03-07T10:31:52;95470.75;;;9.24;72.80
78168;BME280;67410;42.698;23.378;2024-03-07T10:34:18;95466.94;;;9.13;72.10
78168;BME280;67410;42.698;23.378;2024-03-07T10:36:45;95472.53;;;9.30;70.95
78168;BME280;67410;42.698;23.378;2024-03-07T10:39:11;95472.97;;;9.20;71.49
78168;BME280;67410;42.698;23.378;2024-03-07T10:41:45;95470.97;;;9.09;71.75
78168;BME280;67410;42.698;23.378;2024-03-07T10:44:24;95472.25;;;8.93;73.16
78168;BME280;67410;42.698;23.378;2024-03-07T10:46:55;95464.97;;;9.02;74.00
78168;BME280;67410;42.698;23.378;2024-03-07T10:49:25;95461.75;;;8.87;73.31
78168;BME280;67410;42.698;23.378;2024-03-07T10:52:06;95471.44;;;8.93;73.13
78168;BME280;67410;42.698;23.378;2024-03-07T10:54:46;95472.31;;;8.73;73.38
78168;BME280;67410;42.698;23.378;2024-03-07T10:57:41;95462.41;;;8.62;74.03
78168;BME280;67410;42.698;23.378;2024-03-07T11:00:11;95473.47;;;8.84;74.39
78168;BME280;67410;42.698;23.378;2024-03-07T11:02:58;95472.09;;;8.75;75.04
78168;BME280;67410;42.698;23.378;2024-03-07T11:05:28;95469.25;;;8.76;76.52
78168;BME280;67410;42.698;23.378;2024-03-07T11:07:58;95461.59;;;8.68;75.84
78168;BME280;67410;42.698;23.378;2024-03-07T11:10:30;95452.94;;;8.61;76.05
78168;BME280;67410;42.698;23.378;2024-03-07T11:12:57;95456.34;;;8.62;76.33
78168;BME280;67410;42.698;23.378;2024-03-07T11:15:24;95459.38;;;8.59;76.05
78168;BME280;67410;42.698;23.378;2024-03-07T11:17:54;95458.19;;;8.61;77.43
78168;BME280;67410;42.698;23.378;2024-03-07T11:22:48;95464.63;;;8.72;76.58
78168;BME280;67410;42.698;23.378;2024-03-07T11:25:18;95461.59;;;8.55;76.18
78168;BME280;67410;42.698;23.378;2024-03-07T11:27:53;95454.94;;;8.59;76.65
78168;BME280;67410;42.698;23.378;2024-03-07T11:30:21;95456.38;;;8.48;75.35
78168;BME280;67410;42.698;23.378;2024-03-07T11:32:52;95458.22;;;8.41;76.03
78168;BME280;67410;42.698;23.378;2024-03-07T11:35:33;95453.94;;;8.27;76.34
78168;BME280;67410;42.698;23.378;2024-03-07T11:38:02;95446.91;;;8.47;75.98
78168;BME280;67410;42.698;23.378;2024-03-07T11:42:57;95438.81;;;8.16;76.23
78168;BME280;67410;42.698;23.378;2024-03-07T11:45:26;95439.03;;;8.41;76.99
78168;BME280;67410;42.698;23.378;2024-03-07T11:47:57;95435.78;;;8.26;77.57
78168;BME280;67410;42.698;23.378;2024-03-07T11:50:27;95430.56;;;8.19;77.71
78168;BME280;67410;42.698;23.378;2024-03-07T11:52:53;95438.00;;;8.09;78.00
78168;BME280;67410;42.698;23.378;2024-03-07T11:55:21;95431.53;;;8.25;78.28
78168;BME280;67410;42.698;23.378;2024-03-07T11:57:51;95427.91;;;8.26;77.93
78168;BME280;67410;42.698;23.378;2024-03-07T12:00:18;95430.53;;;8.26;77.67
78168;BME280;67410;42.698;23.378;2024-03-07T12:02:44;95434.75;;;8.27;78.46
78168;BME280;67410;42.698;23.378;2024-03-07T12:05:10;95420.25;;;8.04;79.45
78168;BME280;67410;42.698;23.378;2024-03-07T12:07:37;95429.31;;;8.08;78.68
78168;BME280;67410;42.698;23.378;2024-03-07T12:10:04;95430.53;;;8.26;79.40
78168;BME280;67410;42.698;23.378;2024-03-07T12:12:32;95422.47;;;8.14;77.54
78168;BME280;67410;42.698;23.378;2024-03-07T12:14:59;95429.72;;;8.12;77.17
78168;BME280;67410;42.698;23.378;2024-03-07T12:17:25;95431.13;;;8.01;77.08
78168;BME280;67410;42.698;23.378;2024-03-07T12:19:52;95430.34;;;8.14;77.14
78168;BME280;67410;42.698;23.378;2024-03-07T12:22:21;95427.09;;;8.05;78.04
78168;BME280;67410;42.698;23.378;2024-03-07T12:25:00;95445.66;;;7.84;78.29
78168;BME280;67410;42.698;23.378;2024-03-07T12:27:29;95444.44;;;7.80;78.11
78168;BME280;67410;42.698;23.378;2024-03-07T12:29:55;95437.19;;;7.82;77.92
78168;BME280;67410;42.698;23.378;2024-03-07T12:32:22;95429.69;;;7.72;78.57
78168;BME280;67410;42.698;23.378;2024-03-07T12:34:50;95431.53;;;7.65;77.64
78168;BME280;67410;42.698;23.378;2024-03-07T12:37:18;95429.31;;;7.75;77.99
78168;BME280;67410;42.698;23.378;2024-03-07T12:39:54;95437.38;;;7.74;78.34
78168;BME280;67410;42.698;23.378;2024-03-07T12:42:27;95442.00;;;7.72;78.82
78168;BME280;67410;42.698;23.378;2024-03-07T12:44:54;95442.81;;;7.72;79.46
78168;BME280;67410;42.698;23.378;2024-03-07T12:47:23;95439.38;;;7.65;78.56
78168;BME280;67410;42.698;23.378;2024-03-07T12:49:51;95438.34;;;7.53;78.88
78168;BME280;67410;42.698;23.378;2024-03-07T12:52:17;95429.06;;;7.51;79.21
78168;BME280;67410;42.698;23.378;2024-03-07T12:54:43;95433.50;;;7.57;79.36
78168;BME280;67410;42.698;23.378;2024-03-07T12:57:10;95429.09;;;7.64;78.78
78168;BME280;67410;42.698;23.378;2024-03-07T12:59:38;95421.25;;;7.77;78.72
78168;BME280;67410;42.698;23.378;2024-03-07T13:02:08;95427.88;;;7.66;78.02
78168;BME280;67410;42.698;23.378;2024-03-07T13:04:34;95418.41;;;7.65;77.67
78168;BME280;67410;42.698;23.378;2024-03-07T13:07:03;95412.78;;;7.88;77.58